Time;durP1;ratioP1;P1;durP2;ratioP2;P2;SDS_P1;SDS_P2;PMS_P1;PMS_P2;Temp;Humidity;BMP_temperature;BMP_pressure;BME280_temperature;BME280_humidity;BME280_pressure;Samples;Min_cycle;Max_cycle;Signal;HPM_P1;HPM_P2
2023/01/25 00:01:58;;;;;;;91.05;48.50;;;3.70;99.90;;;;;;5009730;28;20377;-79
2023/01/25 00:04:24;;;;;;;89.75;47.97;;;3.70;99.90;;;;;;5010549;28;20466;-80
2023/01/25 00:06:50;;;;;;;88.82;49.28;;;3.70;99.90;;;;;;5009327;28;20038;-80
2023/01/25 00:09:17;;;;;;;84.55;45.78;;;3.60;99.90;;;;;;5010897;28;20471;-78
2023/01/25 00:11:43;;;;;;;89.18;47.55;;;3.50;99.90;;;;;;5008872;28;20030;-80
2023/01/25 00:14:10;;;;;;;82.00;45.75;;;3.60;99.90;;;;;;5008580;28;20030;-79
2023/01/25 00:16:36;;;;;;;85.47;46.15;;;3.60;99.90;;;;;;5007988;28;20359;-80
2023/01/25 00:19:03;;;;;;;82.38;46.17;;;3.60;99.90;;;;;;5006850;28;20113;-77
2023/01/25 00:21:29;;;;;;;86.53;46.17;;;3.60;99.90;;;;;;5009765;28;20033;-80
2023/01/25 00:23:54;;;;;;;84.28;47.50;;;3.60;99.90;;;;;;5006860;28;20023;-79
2023/01/25 00:26:20;;;;;;;88.07;48.22;;;3.70;99.90;;;;;;5010397;28;20479;-79
2023/01/25 00:28:54;;;;;;;81.65;45.67;;;3.60;99.90;;;;;;5009112;28;20028;-79
2023/01/25 00:31:33;;;;;;;84.70;46.10;;;3.60;99.90;;;;;;5009351;28;20109;-79
2023/01/25 00:34:23;;;;;;;81.72;44.88;;;3.60;99.90;;;;;;5008773;28;20057;-80
2023/01/25 00:37:24;;;;;;;78.07;45.53;;;3.50;99.90;;;;;;5009675;28;20026;-79
2023/01/25 00:39:51;;;;;;;83.25;45.65;;;3.50;99.90;;;;;;5014892;28;20073;-79
2023/01/25 00:42:18;;;;;;;82.90;46.42;;;3.50;99.90;;;;;;5006880;28;20033;-78
2023/01/25 00:44:44;;;;;;;83.70;45.28;;;3.40;99.90;;;;;;5008457;28;20336;-79
2023/01/25 00:47:10;;;;;;;77.75;44.33;;;3.50;99.90;;;;;;5010277;28;20437;-79
2023/01/25 00:49:37;;;;;;;84.50;46.33;;;3.50;99.90;;;;;;5007962;28;20034;-79
2023/01/25 00:52:03;;;;;;;79.90;44.75;;;3.60;99.90;;;;;;5005325;28;20045;-80
2023/01/25 00:54:29;;;;;;;83.20;46.88;;;3.40;99.90;;;;;;5007037;28;20018;-79
2023/01/25 00:56:55;;;;;;;81.28;46.45;;;3.40;99.90;;;;;;5007401;28;20474;-80
2023/01/25 00:59:22;;;;;;;80.38;44.90;;;3.50;99.90;;;;;;5007966;28;20080;-79
2023/01/25 01:01:48;;;;;;;82.03;44.88;;;3.50;99.90;;;;;;5008667;28;20052;-80
2023/01/25 01:04:14;;;;;;;79.03;42.30;;;3.50;99.90;;;;;;5008422;28;20048;-80
2023/01/25 01:06:40;;;;;;;81.97;46.33;;;3.50;99.90;;;;;;5008417;28;20038;-75
2023/01/25 01:09:10;;;;;;;79.38;43.58;;;3.40;99.90;;;;;;5008789;28;20030;-77
2023/01/25 01:11:36;;;;;;;80.78;42.30;;;3.40;99.90;;;;;;5008960;28;20034;-80
2023/01/25 01:14:02;;;;;;;76.40;42.55;;;3.40;99.90;;;;;;5007718;28;20429;-75
2023/01/25 01:16:27;;;;;;;76.55;40.38;;;3.50;99.90;;;;;;5007637;28;20062;-80
2023/01/25 01:18:53;;;;;;;82.88;42.28;;;3.50;99.90;;;;;;5008705;28;20036;-79
2023/01/25 01:21:19;;;;;;;82.15;45.13;;;3.60;99.90;;;;;;4994889;28;20048;-77
2023/01/25 01:23:45;;;;;;;87.90;45.53;;;3.60;99.90;;;;;;5007185;28;20030;-80
2023/01/25 01:26:12;;;;;;;83.72;44.88;;;3.50;99.90;;;;;;5005682;28;20022;-80
2023/01/25 01:28:38;;;;;;;84.15;44.53;;;3.50;99.90;;;;;;4991029;28;20037;-78
2023/01/25 01:31:16;;;;;;;89.03;45.42;;;3.60;99.90;;;;;;5007948;28;22761;-80
2023/01/25 01:33:41;;;;;;;88.57;45.45;;;3.60;99.90;;;;;;5008463;28;20501;-80
2023/01/25 01:36:10;;;;;;;88.70;44.22;;;3.50;99.90;;;;;;5007249;28;20174;-79
2023/01/25 01:38:36;;;;;;;81.85;42.67;;;3.50;99.90;;;;;;5005650;28;20025;-79
2023/01/25 01:41:01;;;;;;;89.95;46.70;;;3.60;99.90;;;;;;5009332;28;20076;-79
2023/01/25 01:43:27;;;;;;;84.18;46.38;;;3.60;99.90;;;;;;5007596;28;20040;-80
2023/01/25 01:45:57;;;;;;;85.05;45.90;;;3.50;99.90;;;;;;5008386;28;20033;-80
2023/01/25 01:48:53;;;;;;;82.63;43.45;;;3.50;99.90;;;;;;5006795;28;20118;-80
2023/01/25 01:51:31;;;;;;;87.32;46.03;;;3.30;99.90;;;;;;5021533;28;20100;-80
2023/01/25 01:54:07;;;;;;;83.15;42.92;;;3.30;99.90;;;;;;5006262;28;20040;-80
2023/01/25 01:56:50;;;;;;;85.70;43.00;;;3.30;99.90;;;;;;5007314;28;20056;-79
2023/01/25 01:59:17;;;;;;;81.55;42.65;;;3.40;99.90;;;;;;5005351;28;20087;-80
2023/01/25 02:01:43;;;;;;;76.50;40.25;;;3.40;99.90;;;;;;5006918;28;20030;-75
2023/01/25 02:04:10;;;;;;;79.43;40.53;;;3.40;99.90;;;;;;5006301;28;20034;-80
2023/01/25 02:06:45;;;;;;;79.18;40.42;;;3.20;99.90;;;;;;5007153;28;20029;-80
2023/01/25 02:09:14;;;;;;;79.55;40.65;;;3.20;99.90;;;;;;5007631;28;20390;-81
2023/01/25 02:11:40;;;;;;;77.55;39.95;;;3.30;99.90;;;;;;5006918;28;20018;-79
2023/01/25 02:14:06;;;;;;;78.18;41.28;;;3.40;99.90;;;;;;5007506;28;20617;-80
2023/01/25 02:16:32;;;;;;;77.03;39.85;;;3.40;99.90;;;;;;5023605;28;20041;-81
2023/01/25 02:19:01;;;;;;;74.00;38.65;;;3.40;99.90;;;;;;5005623;28;20018;-80
2023/01/25 02:21:32;;;;;;;77.50;40.38;;;3.30;99.90;;;;;;5006648;28;20397;-80
2023/01/25 02:24:05;;;;;;;83.00;42.78;;;3.30;99.90;;;;;;5004303;28;20030;-79
2023/01/25 02:26:30;;;;;;;;;;;3.40;99.90;;;;;;5008385;28;20037;-78
2023/01/25 02:29:02;;;;;;;80.13;40.28;;;3.40;99.90;;;;;;5006301;28;19913;-77
2023/01/25 02:31:28;;;;;;;81.97;41.63;;;3.30;99.90;;;;;;5005895;28;20029;-75
2023/01/25 02:33:54;;;;;;;86.07;44.55;;;3.40;99.90;;;;;;5007534;28;20394;-80
2023/01/25 02:36:29;;;;;;;85.38;44.70;;;3.50;99.90;;;;;;5008686;28;20438;-80
2023/01/25 02:39:06;;;;;;;86.60;44.78;;;3.50;99.90;;;;;;5007841;28;20025;-76
2023/01/25 02:41:41;;;;;;;84.97;43.88;;;3.50;99.90;;;;;;5007135;28;20479;-76
2023/01/25 02:44:13;;;;;;;85.50;45.08;;;3.60;99.90;;;;;;5002952;28;20030;-80
2023/01/25 02:46:41;;;;;;;83.93;43.75;;;3.50;99.90;;;;;;5001738;28;20109;-80
2023/01/25 02:49:08;;;;;;;92.82;46.90;;;3.60;99.90;;;;;;4999950;28;20034;-80
2023/01/25 02:51:36;;;;;;;90.50;47.15;;;3.50;99.90;;;;;;5001167;28;20101;-77
2023/01/25 02:54:05;;;;;;;93.35;47.17;;;3.50;99.90;;;;;;5002687;28;20034;-78
2023/01/25 02:56:31;;;;;;;89.25;46.17;;;3.50;99.90;;;;;;5000538;28;20390;-75
2023/01/25 02:58:57;;;;;;;94.68;48.78;;;3.40;99.90;;;;;;5002976;28;20037;-80
2023/01/25 03:01:23;;;;;;;94.03;49.10;;;3.40;99.90;;;;;;4997724;28;20122;-80
2023/01/25 03:03:49;;;;;;;88.63;46.17;;;3.40;99.90;;;;;;5000451;28;20029;-80
2023/01/25 03:06:15;;;;;;;90.90;46.63;;;3.40;99.90;;;;;;5003267;28;20080;-77
2023/01/25 03:08:41;;;;;;;89.97;44.45;;;3.50;99.90;;;;;;5003298;28;20396;-80
2023/01/25 03:11:07;;;;;;;93.32;46.30;;;3.40;99.90;;;;;;5002439;28;20033;-80
2023/01/25 03:13:34;;;;;;;87.45;45.63;;;3.50;99.90;;;;;;5001439;28;20475;-79
2023/01/25 03:16:05;;;;;;;94.40;48.85;;;3.50;99.90;;;;;;5001757;28;20017;-81
2023/01/25 03:18:31;;;;;;;93.07;48.03;;;3.50;99.90;;;;;;5002893;28;20109;-80
2023/01/25 03:21:07;;;;;;;93.20;46.97;;;3.50;99.90;;;;;;5002499;28;20034;-80
2023/01/25 03:23:33;;;;;;;90.20;44.97;;;3.30;99.90;;;;;;5007666;28;20353;-81
2023/01/25 03:26:08;;;;;;;94.93;46.65;;;3.00;99.90;;;;;;5006681;28;20021;-79
2023/01/25 03:28:33;;;;;;;91.70;46.45;;;3.10;99.90;;;;;;5005279;28;20037;-80
2023/01/25 03:30:59;;;;;;;93.03;45.60;;;3.10;99.90;;;;;;5004903;28;20756;-80
2023/01/25 03:33:24;;;;;;;92.38;47.15;;;3.10;99.90;;;;;;5006979;28;20109;-81
2023/01/25 03:35:56;;;;;;;91.07;46.80;;;3.20;99.90;;;;;;5004984;28;20490;-80
2023/01/25 03:38:22;;;;;;;89.50;44.22;;;3.30;99.90;;;;;;5004769;28;20215;-80
2023/01/25 03:40:49;;;;;;;93.57;46.92;;;3.40;99.90;;;;;;5006815;28;20403;-81
2023/01/25 03:43:15;;;;;;;100.38;48.33;;;3.40;99.90;;;;;;5006067;28;20031;-80
2023/01/25 03:45:41;;;;;;;91.45;46.90;;;3.40;99.90;;;;;;5006284;28;20106;-80
2023/01/25 03:48:07;;;;;;;101.78;50.95;;;3.40;99.90;;;;;;5005839;28;20474;-80
2023/01/25 03:50:32;;;;;;;92.95;44.88;;;3.20;99.90;;;;;;5005846;28;20023;-80
2023/01/25 03:53:04;;;;;;;99.22;47.92;;;3.20;99.90;;;;;;5004017;28;20382;-80
2023/01/25 03:55:30;;;;;;;102.50;50.03;;;3.10;99.90;;;;;;5002438;28;20494;-80
2023/01/25 03:57:56;;;;;;;104.13;51.17;;;3.00;99.90;;;;;;5006592;28;20037;-80
2023/01/25 04:00:22;;;;;;;102.07;51.05;;;3.10;99.90;;;;;;5015472;28;20030;-80
2023/01/25 04:02:47;;;;;;;109.28;55.35;;;3.10;99.90;;;;;;5015078;28;20040;-81
2023/01/25 04:05:13;;;;;;;107.80;53.72;;;3.00;99.90;;;;;;5015047;28;20066;-81
2023/01/25 04:07:39;;;;;;;108.43;54.58;;;3.00;99.90;;;;;;5011398;28;20030;-80
2023/01/25 04:10:05;;;;;;;102.35;49.88;;;3.10;99.90;;;;;;5000380;28;20489;-81
2023/01/25 04:12:31;;;;;;;105.63;49.65;;;3.00;99.90;;;;;;5014581;28;20041;-81
2023/01/25 04:14:57;;;;;;;104.22;50.08;;;3.10;99.90;;;;;;5003440;28;20026;-82
2023/01/25 04:17:23;;;;;;;103.10;49.22;;;3.10;99.90;;;;;;4995307;28;20038;-82
2023/01/25 04:19:48;;;;;;;100.95;48.08;;;3.20;99.90;;;;;;4995029;28;20054;-81
2023/01/25 04:22:15;;;;;;;105.53;50.58;;;3.30;99.90;;;;;;4995118;28;20030;-81
2023/01/25 04:24:41;;;;;;;97.82;51.38;;;3.20;99.90;;;;;;4995075;28;20050;-80
2023/01/25 04:27:07;;;;;;;103.30;51.38;;;3.30;99.90;;;;;;5010309;28;20559;-81
2023/01/25 04:29:33;;;;;;;106.53;51.67;;;3.20;99.90;;;;;;5013259;28;20029;-81
2023/01/25 04:31:59;;;;;;;99.10;48.88;;;3.30;99.90;;;;;;5013480;28;20487;-79
2023/01/25 04:34:25;;;;;;;101.30;49.55;;;3.30;99.90;;;;;;5013790;28;20101;-81
2023/01/25 04:36:50;;;;;;;102.07;50.10;;;3.40;99.90;;;;;;5013925;28;20470;-81
2023/01/25 04:39:16;;;;;;;94.85;48.90;;;3.40;99.90;;;;;;5014506;28;20102;-81
2023/01/25 04:41:41;;;;;;;92.00;46.55;;;3.40;99.90;;;;;;5005387;28;20038;-82
2023/01/25 04:44:07;;;;;;;93.50;46.28;;;3.40;99.90;;;;;;4994123;28;20022;-80
2023/01/25 04:46:33;;;;;;;100.15;51.30;;;3.40;99.90;;;;;;4994717;28;20034;-82
2023/01/25 04:48:58;;;;;;;99.75;49.67;;;3.40;99.90;;;;;;5014429;28;20096;-81
2023/01/25 04:51:24;;;;;;;104.70;49.50;;;3.40;99.90;;;;;;5013010;28;20049;-82
2023/01/25 04:53:49;;;;;;;106.00;51.72;;;3.40;99.90;;;;;;5006775;28;20030;-82
2023/01/25 04:56:15;;;;;;;107.80;51.42;;;3.40;99.90;;;;;;4993262;28;20142;-81
2023/01/25 04:58:40;;;;;;;99.25;50.42;;;3.40;99.90;;;;;;5007317;28;20022;-81
2023/01/25 05:01:06;;;;;;;98.05;49.55;;;3.30;99.90;;;;;;5013615;28;20531;-81
2023/01/25 05:03:32;;;;;;;93.60;49.28;;;3.30;99.90;;;;;;5014075;28;20065;-82
2023/01/25 05:05:57;;;;;;;94.88;48.60;;;3.40;99.90;;;;;;5013514;28;20473;-82
2023/01/25 05:08:24;;;;;;;98.10;48.72;;;3.40;99.90;;;;;;5007329;28;20038;-82
2023/01/25 05:10:50;;;;;;;94.32;48.90;;;3.40;99.90;;;;;;4994205;28;20356;-82
2023/01/25 05:13:16;;;;;;;96.15;47.33;;;3.40;99.90;;;;;;5009466;28;20037;-81
2023/01/25 05:15:41;;;;;;;100.57;48.75;;;3.40;99.90;;;;;;4994420;28;20022;-82
2023/01/25 05:18:07;;;;;;;106.07;49.42;;;3.40;99.90;;;;;;4993702;28;20387;-79
2023/01/25 05:20:33;;;;;;;96.65;48.42;;;3.40;99.90;;;;;;5008199;28;20044;-81
2023/01/25 05:22:58;;;;;;;103.90;50.50;;;3.30;99.90;;;;;;5013930;28;20026;-82
2023/01/25 05:28:08;;;;;;;97.93;50.10;;;3.40;99.90;;;;;;5013142;28;20044;-82
2023/01/25 05:30:34;;;;;;;99.05;49.53;;;3.40;99.90;;;;;;5013362;28;20018;-81
2023/01/25 05:33:00;;;;;;;99.10;50.40;;;3.40;99.90;;;;;;5013297;28;20540;-83
2023/01/25 05:35:25;;;;;;;97.78;49.33;;;3.50;99.90;;;;;;5004686;28;20034;-83
2023/01/25 05:37:58;;;;;;;102.47;50.65;;;3.40;99.90;;;;;;4993831;28;20465;-83
2023/01/25 05:40:24;;;;;;;;;;;3.40;99.90;;;;;;4993962;28;20019;-82
2023/01/25 05:42:57;;;;;;;107.82;50.30;;;3.40;99.90;;;;;;5007476;28;20326;-83
2023/01/25 05:45:23;;;;;;;109.00;50.58;;;3.50;99.90;;;;;;5012426;28;20053;-82
2023/01/25 05:47:56;;;;;;;103.15;48.25;;;3.50;99.90;;;;;;5013189;28;20088;-81
2023/01/25 05:50:23;;;;;;;102.13;50.67;;;3.40;99.90;;;;;;5003667;28;20482;-82
2023/01/25 05:52:49;;;;;;;108.88;53.05;;;3.40;99.90;;;;;;5011273;28;20084;-83
2023/01/25 05:55:15;;;;;;;106.00;50.55;;;3.40;99.90;;;;;;4995820;28;20034;-82
2023/01/25 05:57:40;;;;;;;109.80;52.10;;;3.40;99.90;;;;;;5011952;28;20029;-83
2023/01/25 06:00:07;;;;;;;105.53;50.10;;;3.40;99.90;;;;;;5013073;28;20034;-83
2023/01/25 06:02:32;;;;;;;103.53;49.03;;;3.40;99.90;;;;;;5013301;28;20386;-83
2023/01/25 06:04:58;;;;;;;83.15;43.33;;;3.40;99.90;;;;;;5011227;28;20038;-82
2023/01/25 06:07:24;;;;;;;104.75;53.22;;;3.40;99.90;;;;;;5010387;28;20034;-81
2023/01/25 06:09:50;;;;;;;113.32;55.17;;;3.40;99.90;;;;;;4998169;28;20116;-83
2023/01/25 06:12:18;;;;;;;121.13;58.17;;;3.30;99.90;;;;;;4993324;28;20037;-82
2023/01/25 06:14:46;;;;;;;114.30;53.88;;;3.10;99.90;;;;;;4993151;28;20018;-83
2023/01/25 06:17:12;;;;;;;102.78;51.38;;;3.20;99.90;;;;;;4993446;28;20024;-83
2023/01/25 06:19:38;;;;;;;115.78;55.58;;;3.20;99.90;;;;;;4998982;28;20022;-84
2023/01/25 06:22:04;;;;;;;111.82;54.13;;;3.30;99.90;;;;;;5013091;28;20025;-83
2023/01/25 06:24:29;;;;;;;107.43;51.50;;;3.30;99.90;;;;;;5008232;28;20014;-83
2023/01/25 06:26:55;;;;;;;118.35;53.78;;;3.30;99.90;;;;;;5012293;28;20030;-84
2023/01/25 06:29:20;;;;;;;113.20;53.38;;;3.30;99.90;;;;;;5010912;28;20117;-83
2023/01/25 06:31:46;;;;;;;114.93;54.42;;;3.30;99.90;;;;;;5012699;28;20035;-83
2023/01/25 06:34:11;;;;;;;114.78;53.05;;;3.40;99.90;;;;;;5012995;28;20092;-84
2023/01/25 06:36:37;;;;;;;111.85;52.05;;;3.40;99.90;;;;;;5012111;28;20022;-82
2023/01/25 06:39:03;;;;;;;115.07;54.80;;;3.40;99.90;;;;;;5007153;28;20378;-84
2023/01/25 06:41:29;;;;;;;110.60;53.53;;;3.30;99.90;;;;;;4999597;28;20026;-83
2023/01/25 06:43:55;;;;;;;115.13;54.88;;;3.30;99.90;;;;;;4991467;28;20105;-84
2023/01/25 06:46:21;;;;;;;114.88;55.90;;;3.30;99.90;;;;;;5002940;28;20080;-83
2023/01/25 06:48:47;;;;;;;119.32;55.67;;;3.30;99.90;;;;;;5010103;28;20034;-80
2023/01/25 06:51:13;;;;;;;121.45;56.72;;;3.40;99.90;;;;;;5011288;28;20026;-82
2023/01/25 06:53:41;;;;;;;115.75;54.60;;;3.40;99.90;;;;;;5010139;28;20036;-80
2023/01/25 06:56:13;;;;;;;111.03;50.88;;;3.40;99.90;;;;;;5014827;28;20026;-83
2023/01/25 06:58:39;;;;;;;121.72;56.70;;;3.40;99.90;;;;;;5015795;28;20497;-83
2023/01/25 07:01:20;;;;;;;120.47;55.42;;;3.40;99.90;;;;;;5016086;28;20024;-83
2023/01/25 07:03:50;;;;;;;120.00;56.42;;;3.30;99.90;;;;;;5016047;28;20042;-82
2023/01/25 07:06:17;;;;;;;116.78;53.45;;;3.40;99.90;;;;;;5015200;28;20037;-84
2023/01/25 07:08:42;;;;;;;128.88;59.95;;;3.40;99.90;;;;;;5014568;28;20029;-84
2023/01/25 07:11:12;;;;;;;119.72;55.08;;;3.40;99.90;;;;;;5015502;28;20029;-84
2023/01/25 07:13:39;;;;;;;121.90;55.80;;;3.40;99.90;;;;;;5009491;28;20034;-71
2023/01/25 07:16:09;;;;;;;116.10;51.92;;;3.30;99.90;;;;;;5014461;28;20018;-70
2023/01/25 07:18:36;;;;;;;118.65;54.72;;;3.30;99.90;;;;;;5015979;28;20022;-70
2023/01/25 07:21:13;;;;;;;120.90;57.25;;;3.30;99.90;;;;;;5005660;28;20026;-69
2023/01/25 07:23:38;;;;;;;119.50;54.35;;;3.30;99.90;;;;;;4996348;28;20141;-70
2023/01/25 07:26:05;;;;;;;126.25;57.08;;;3.30;99.90;;;;;;5005064;28;20494;-70
2023/01/25 07:28:31;;;;;;;129.90;60.00;;;3.20;99.90;;;;;;5015441;28;20053;-70
2023/01/25 07:31:04;;;;;;;129.10;58.80;;;3.20;99.90;;;;;;5015173;28;20104;-72
2023/01/25 07:33:31;;;;;;;126.53;56.45;;;3.20;99.90;;;;;;5014460;28;20030;-71
2023/01/25 07:36:06;;;;;;;127.07;58.42;;;3.20;99.90;;;;;;5014765;28;20088;-71
2023/01/25 07:38:32;;;;;;;126.32;56.78;;;3.20;99.90;;;;;;5012394;28;20125;-71
2023/01/25 07:40:58;;;;;;;120.75;55.40;;;3.20;99.90;;;;;;5015248;28;20475;-72
2023/01/25 07:43:24;;;;;;;129.95;56.47;;;3.20;99.90;;;;;;5015388;28;20022;-71
2023/01/25 07:45:50;;;;;;;121.35;53.88;;;3.20;99.90;;;;;;5015274;28;20037;-72
2023/01/25 07:48:18;;;;;;;121.80;56.15;;;3.20;99.90;;;;;;5013282;28;20037;-73
2023/01/25 07:50:48;;;;;;;118.93;54.13;;;3.10;99.90;;;;;;4999521;28;20046;-74
2023/01/25 07:53:15;;;;;;;114.88;52.67;;;3.10;99.90;;;;;;4995151;28;20026;-72
2023/01/25 07:55:40;;;;;;;119.75;53.97;;;3.00;99.90;;;;;;4995151;28;20028;-72
2023/01/25 07:58:08;;;;;;;117.25;53.38;;;3.00;99.90;;;;;;4994779;28;20026;-72
2023/01/25 08:00:34;;;;;;;117.47;53.00;;;3.00;99.90;;;;;;5012629;28;20026;-72
2023/01/25 08:02:59;;;;;;;120.68;54.88;;;3.10;99.90;;;;;;5013466;28;20479;-73
2023/01/25 08:05:25;;;;;;;115.38;52.30;;;3.10;99.90;;;;;;5007947;28;20109;-74
2023/01/25 08:07:51;;;;;;;114.13;51.38;;;3.20;99.90;;;;;;4994968;28;20041;-73
2023/01/25 08:10:16;;;;;;;115.18;52.20;;;3.00;99.90;;;;;;4994828;28;20026;-76
2023/01/25 08:12:45;;;;;;;113.30;51.78;;;2.90;99.90;;;;;;4993473;28;20030;-73
2023/01/25 08:15:12;;;;;;;120.93;54.20;;;2.60;99.90;;;;;;4994045;28;20060;-73
2023/01/25 08:17:38;;;;;;;113.15;52.13;;;2.60;99.90;;;;;;4994689;28;20101;-72
2023/01/25 08:20:04;;;;;;;115.07;53.47;;;2.60;99.90;;;;;;5001101;28;20122;-73
2023/01/25 08:22:30;;;;;;;116.60;52.55;;;2.50;99.90;;;;;;5014765;28;20060;-73
2023/01/25 08:24:56;;;;;;;116.85;52.40;;;2.70;99.90;;;;;;5013027;28;20092;-73
2023/01/25 08:27:22;;;;;;;122.20;53.70;;;2.70;99.90;;;;;;5014678;28;20030;-72
2023/01/25 08:29:49;;;;;;;113.78;50.15;;;2.70;99.90;;;;;;5012917;28;20363;-74
2023/01/25 08:32:15;;;;;;;112.78;51.47;;;2.80;99.90;;;;;;5011765;28;20022;-77
2023/01/25 08:34:41;;;;;;;120.78;53.25;;;2.80;99.90;;;;;;5012974;28;20033;-69
2023/01/25 08:37:07;;;;;;;113.88;53.50;;;2.90;99.90;;;;;;5013644;28;20018;-72
2023/01/25 08:39:32;;;;;;;116.72;52.78;;;3.00;99.90;;;;;;5005828;28;20049;-69
2023/01/25 08:41:58;;;;;;;115.40;50.90;;;2.90;99.90;;;;;;4994512;28;20038;-72
2023/01/25 08:44:24;;;;;;;120.60;54.45;;;3.00;99.90;;;;;;4994646;28;20029;-72
2023/01/25 08:46:50;;;;;;;112.30;52.83;;;3.00;99.90;;;;;;5009680;28;20045;-72
2023/01/25 08:49:16;;;;;;;113.38;51.58;;;3.10;99.90;;;;;;5013253;28;20026;-71
2023/01/25 08:51:42;;;;;;;117.03;52.83;;;3.00;99.90;;;;;;4993914;28;20475;-73
2023/01/25 08:54:11;;;;;;;114.50;52.33;;;3.00;99.90;;;;;;5004827;28;20030;-72
2023/01/25 08:56:40;;;;;;;118.43;54.47;;;3.00;99.90;;;;;;5014003;28;20052;-72
2023/01/25 08:59:07;;;;;;;116.30;51.60;;;2.80;99.90;;;;;;5013595;28;20088;-72
2023/01/25 09:01:33;;;;;;;119.80;51.90;;;2.80;99.90;;;;;;5005021;28;20419;-70
2023/01/25 09:03:58;;;;;;;111.90;51.72;;;2.90;99.90;;;;;;4995681;28;20085;-70
2023/01/25 09:06:24;;;;;;;111.63;48.40;;;2.90;99.90;;;;;;5029084;28;20045;-74
2023/01/25 09:08:49;;;;;;;116.78;50.72;;;2.90;99.90;;;;;;5013181;28;20034;-77
2023/01/25 09:11:19;;;;;;;114.68;51.20;;;2.90;99.90;;;;;;5012203;28;20056;-79
2023/01/25 09:13:44;;;;;;;121.07;53.90;;;2.90;99.90;;;;;;5012924;28;20080;-74
2023/01/25 09:16:14;;;;;;;121.05;53.58;;;2.80;99.90;;;;;;5008769;28;20034;-72
2023/01/25 09:18:42;;;;;;;113.50;51.92;;;2.80;99.90;;;;;;5004356;28;20372;-73
2023/01/25 09:21:10;;;;;;;111.00;49.55;;;2.90;99.90;;;;;;5001223;28;20026;-72
2023/01/25 09:23:36;;;;;;;119.15;52.47;;;3.00;99.90;;;;;;5012307;28;20026;-78
2023/01/25 09:26:03;;;;;;;117.40;52.35;;;3.00;99.90;;;;;;4997357;28;20081;-78
2023/01/25 09:28:30;;;;;;;121.95;55.38;;;3.00;99.90;;;;;;5007669;28;20100;-74
2023/01/25 09:30:57;;;;;;;114.68;52.42;;;2.90;99.90;;;;;;4998111;28;20046;-78
2023/01/25 09:33:27;;;;;;;109.32;50.67;;;3.00;99.90;;;;;;5001198;28;20038;-78
2023/01/25 09:35:53;;;;;;;115.50;53.25;;;3.00;99.90;;;;;;4993888;28;20026;-73
2023/01/25 09:38:19;;;;;;;114.53;52.65;;;3.00;99.90;;;;;;4980051;28;20441;-72
2023/01/25 09:41:11;;;;;;;118.43;52.45;;;3.00;99.90;;;;;;5005094;28;20018;-73
2023/01/25 09:44:15;;;;;;;117.90;51.73;;;3.00;99.90;;;;;;5006218;28;20474;-79
2023/01/25 09:46:49;;;;;;;113.40;49.28;;;3.10;99.90;;;;;;5005285;28;20042;-73
2023/01/25 09:49:44;;;;;;;117.20;51.38;;;3.10;99.90;;;;;;5024655;28;20534;-77
2023/01/25 09:52:37;;;;;;;109.07;48.88;;;3.20;99.90;;;;;;5008759;28;20156;-77
2023/01/25 09:55:13;;;;;;;119.45;53.42;;;3.00;99.90;;;;;;5007104;28;20049;-73
2023/01/25 09:57:40;;;;;;;120.07;54.45;;;3.00;99.90;;;;;;5005091;28;20562;-73
2023/01/25 10:00:37;;;;;;;128.10;55.30;;;3.00;99.90;;;;;;5007969;28;20021;-73
2023/01/25 10:03:31;;;;;;;126.40;54.30;;;3.00;99.90;;;;;;5008143;28;20111;-77
2023/01/25 10:05:59;;;;;;;116.40;53.00;;;3.00;99.90;;;;;;5016553;28;20045;-81
2023/01/25 10:08:43;;;;;;;118.50;52.78;;;3.10;99.90;;;;;;5007432;28;20075;-72
2023/01/25 10:11:30;;;;;;;116.47;53.10;;;3.10;99.90;;;;;;5008339;28;20022;-80
2023/01/25 10:13:57;;;;;;;120.95;53.78;;;3.00;99.90;;;;;;5007890;28;20507;-79
2023/01/25 10:16:32;;;;;;;119.55;51.85;;;3.10;99.90;;;;;;5007980;28;20029;-78
2023/01/25 10:19:07;;;;;;;117.35;50.97;;;3.10;99.90;;;;;;5008306;28;20033;-78
2023/01/25 10:21:46;;;;;;;113.72;50.22;;;3.00;99.90;;;;;;5008087;28;20022;-79
2023/01/25 10:24:39;;;;;;;113.22;50.25;;;2.90;99.90;;;;;;5008484;28;20037;-76
2023/01/25 10:27:29;;;;;;;121.05;51.83;;;3.00;99.90;;;;;;5009023;28;20232;-69
2023/01/25 10:29:58;;;;;;;117.50;52.63;;;3.00;99.90;;;;;;5025211;28;20491;-69
2023/01/25 10:32:27;;;;;;;115.82;49.85;;;3.10;99.90;;;;;;5008049;28;20033;-71
2023/01/25 10:34:56;;;;;;;116.95;51.38;;;3.10;99.90;;;;;;5006073;28;20026;-71
2023/01/25 10:37:29;;;;;;;116.68;51.30;;;3.10;99.90;;;;;;5009092;28;20038;-71
2023/01/25 10:40:05;;;;;;;111.43;49.17;;;3.10;99.90;;;;;;5011557;28;20021;-72
2023/01/25 10:42:38;;;;;;;109.25;50.08;;;3.10;99.90;;;;;;5009682;28;20501;-71
2023/01/25 10:45:12;;;;;;;111.78;49.45;;;3.10;99.90;;;;;;5011629;28;20079;-69
2023/01/25 10:47:41;;;;;;;109.50;48.80;;;3.00;99.90;;;;;;5011532;28;20477;-69
2023/01/25 10:50:08;;;;;;;110.80;50.95;;;3.10;99.90;;;;;;5008379;28;20022;-70
2023/01/25 10:52:37;;;;;;;112.35;50.53;;;3.10;99.90;;;;;;5012099;28;20042;-70
2023/01/25 10:55:16;;;;;;;114.25;50.60;;;3.00;99.90;;;;;;5009681;28;20377;-78
2023/01/25 10:57:50;;;;;;;114.15;50.38;;;3.00;99.90;;;;;;5011277;28;20030;-83
2023/01/25 11:00:34;;;;;;;110.55;49.03;;;3.10;99.90;;;;;;5011465;28;20026;-82
2023/01/25 11:03:00;;;;;;;112.68;48.28;;;3.00;99.90;;;;;;5011789;28;20061;-79
2023/01/25 11:05:33;;;;;;;113.15;48.08;;;3.00;99.90;;;;;;5012154;28;20064;-83
2023/01/25 11:08:16;;;;;;;111.93;48.40;;;3.10;99.90;;;;;;5011273;28;20029;-73
2023/01/25 11:10:44;;;;;;;111.85;49.92;;;3.00;99.90;;;;;;5009700;28;20033;-72
2023/01/25 11:13:12;;;;;;;113.53;50.92;;;3.10;99.90;;;;;;5011114;28;20041;-72
2023/01/25 11:15:39;;;;;;;110.43;48.40;;;3.00;99.90;;;;;;5011525;28;20053;-72
2023/01/25 11:18:06;;;;;;;107.63;48.78;;;3.10;99.90;;;;;;5010371;28;20017;-73
2023/01/25 11:20:31;;;;;;;109.75;50.88;;;3.10;99.90;;;;;;5009054;28;20069;-74
2023/01/25 11:22:57;;;;;;;116.50;50.58;;;3.10;99.90;;;;;;5008329;28;20057;-72
2023/01/25 11:25:31;;;;;;;109.00;48.40;;;3.10;99.90;;;;;;5007262;28;20073;-72
2023/01/25 11:28:17;;;;;;;109.28;49.13;;;3.10;99.90;;;;;;5010735;28;20042;-71
2023/01/25 11:30:43;;;;;;;109.10;48.20;;;3.10;99.90;;;;;;4992531;28;22257;-70
2023/01/25 11:33:12;;;;;;;115.07;48.75;;;3.10;99.90;;;;;;5008747;28;20022;-70
2023/01/25 11:35:48;;;;;;;109.55;47.65;;;3.20;99.90;;;;;;5009471;28;20022;-70
2023/01/25 11:38:18;;;;;;;111.93;47.78;;;3.20;99.90;;;;;;5009133;28;20046;-70
2023/01/25 11:40:49;;;;;;;108.70;47.00;;;3.10;99.90;;;;;;5007490;28;20022;-70
2023/01/25 11:43:44;;;;;;;110.95;48.10;;;3.10;99.90;;;;;;5008975;28;20120;-72
2023/01/25 11:46:35;;;;;;;108.18;48.20;;;3.10;99.90;;;;;;4996314;28;20466;-71
2023/01/25 11:49:45;;;;;;;111.78;50.42;;;2.90;99.90;;;;;;5009497;28;20124;-70
2023/01/25 11:52:39;;;;;;;122.00;53.30;;;3.00;99.90;;;;;;5024201;28;20033;-70
2023/01/25 11:55:12;;;;;;;123.68;54.55;;;3.00;99.90;;;;;;5006724;28;20045;-70
2023/01/25 11:57:44;;;;;;;112.57;51.42;;;2.90;99.90;;;;;;5005832;28;20030;-70
2023/01/25 12:00:44;;;;;;;123.73;52.93;;;2.80;99.90;;;;;;5009123;28;20030;-70
2023/01/25 12:03:45;;;;;;;113.78;48.22;;;2.90;99.90;;;;;;5005974;28;20296;-71
2023/01/25 12:06:28;;;;;;;113.85;48.63;;;2.80;99.90;;;;;;5008244;28;20429;-70
2023/01/25 12:09:02;;;;;;;121.47;49.90;;;2.70;99.90;;;;;;5004810;28;20038;-70
2023/01/25 12:11:49;;;;;;;113.35;49.35;;;2.80;99.90;;;;;;5006176;28;20097;-70
2023/01/25 12:14:43;;;;;;;114.43;49.55;;;2.90;99.90;;;;;;5008910;28;20116;-71
2023/01/25 12:17:34;;;;;;;122.47;50.42;;;2.90;99.90;;;;;;5010044;28;20034;-70
2023/01/25 12:20:08;;;;;;;120.65;50.92;;;2.80;99.90;;;;;;5010959;28;20030;-70
2023/01/25 12:22:55;;;;;;;123.43;52.90;;;2.90;99.90;;;;;;5008317;28;20117;-71
2023/01/25 12:25:46;;;;;;;118.13;52.10;;;2.90;99.90;;;;;;5010646;28;20026;-70
2023/01/25 12:28:19;;;;;;;118.88;49.83;;;2.80;99.90;;;;;;5006927;28;20062;-71
2023/01/25 12:31:03;;;;;;;121.93;52.13;;;2.90;99.90;;;;;;5008053;28;20108;-78
2023/01/25 12:33:44;;;;;;;114.82;52.58;;;2.90;99.90;;;;;;5001994;28;20084;-74
2023/01/25 12:36:20;;;;;;;124.45;51.70;;;2.90;99.90;;;;;;5009742;28;20093;-75
2023/01/25 12:38:51;;;;;;;124.38;53.25;;;2.80;99.90;;;;;;4992845;28;20042;-74
2023/01/25 12:41:29;;;;;;;118.32;52.85;;;2.90;99.90;;;;;;5009891;28;20029;-75
2023/01/25 12:44:20;;;;;;;121.10;53.22;;;2.90;99.90;;;;;;5009419;28;20112;-83
2023/01/25 12:47:04;;;;;;;122.30;54.53;;;2.90;99.90;;;;;;5009931;28;20018;-82
2023/01/25 12:49:41;;;;;;;116.65;53.78;;;3.00;99.90;;;;;;5009122;28;20155;-72